createdAt,value
2022-08-26T00:00:55.741Z,60.80
2022-08-26T00:03:24.016Z,61.50
2022-08-26T00:05:52.088Z,61.78
2022-08-26T00:08:23.537Z,62.22
2022-08-26T00:10:53.699Z,68.10
2022-08-26T00:13:28.478Z,70.28
2022-08-26T00:16:00.492Z,67.92
2022-08-26T00:18:38.564Z,65.84
2022-08-26T00:21:12.251Z,64.08
2022-08-26T00:23:56.115Z,63.89
2022-08-26T00:26:25.034Z,63.32
2022-08-26T00:28:58.475Z,61.99
2022-08-26T00:31:26.749Z,60.67
2022-08-26T00:34:06.252Z,60.15
2022-08-26T00:36:34.157Z,58.20
2022-08-26T00:39:07.757Z,56.85
2022-08-26T00:41:38.756Z,57.65
2022-08-26T00:44:08.923Z,57.84
2022-08-26T00:46:47.010Z,58.21
2022-08-26T00:49:41.722Z,57.84
2022-08-26T00:52:16.036Z,57.63
2022-08-26T00:55:20.460Z,59.24
2022-08-26T00:57:54.051Z,60.91
2022-08-26T01:00:26.606Z,61.52
2022-08-26T01:02:59.476Z,61.11
2022-08-26T01:05:30.694Z,61.08
2022-08-26T01:08:02.226Z,61.15
2022-08-26T01:10:34.617Z,61.69
2022-08-26T01:13:19.007Z,62.29
2022-08-26T01:15:57.380Z,66.95
2022-08-26T01:18:30.063Z,70.54
2022-08-26T01:21:32.948Z,68.74
2022-08-26T01:24:06.757Z,66.82
2022-08-26T01:26:41.643Z,64.67
2022-08-26T01:29:17.003Z,63.64
2022-08-26T01:31:57.195Z,62.66
2022-08-26T01:34:42.898Z,62.35
2022-08-26T01:37:28.475Z,61.51
2022-08-26T01:40:03.882Z,59.81
2022-08-26T01:42:42.059Z,58.70
2022-08-26T01:45:25.526Z,56.74
2022-08-26T01:48:08.750Z,56.82
2022-08-26T01:50:40.576Z,57.15
2022-08-26T01:53:14.180Z,56.91
2022-08-26T01:55:49.464Z,58.48
2022-08-26T01:58:48.492Z,59.81
2022-08-26T02:01:16.525Z,59.13
2022-08-26T02:04:00.084Z,59.47
2022-08-26T02:06:29.173Z,61.39
2022-08-26T02:09:00.014Z,61.20
2022-08-26T02:11:29.242Z,61.13
2022-08-26T02:14:06.280Z,60.91
2022-08-26T02:16:42.767Z,61.32
2022-08-26T02:19:21.522Z,61.23
2022-08-26T02:21:58.710Z,63.08
2022-08-26T02:24:31.358Z,68.80
2022-08-26T02:26:59.854Z,70.35
2022-08-26T02:29:38.681Z,68.76
2022-08-26T02:32:11.555Z,67.13
2022-08-26T02:34:42.500Z,64.61
2022-08-26T02:37:23.593Z,62.90
2022-08-26T02:39:52.595Z,62.23
2022-08-26T02:42:34.705Z,61.49
2022-08-26T02:45:16.775Z,60.02
2022-08-26T02:47:56.802Z,58.46
2022-08-26T02:50:42.592Z,58.18
2022-08-26T02:53:27.802Z,60.19
2022-08-26T02:55:59.735Z,60.55
2022-08-26T02:58:46.955Z,60.93
2022-08-26T03:01:32.624Z,63.20
2022-08-26T03:04:14.108Z,68.24
2022-08-26T03:06:43.216Z,68.12
2022-08-26T03:09:21.427Z,66.30
2022-08-26T03:11:52.600Z,64.57
2022-08-26T03:14:38.723Z,62.75
2022-08-26T03:17:14.308Z,61.68
2022-08-26T03:19:52.901Z,61.23
2022-08-26T03:22:37.101Z,60.87
2022-08-26T03:25:07.279Z,59.34
2022-08-26T03:27:38.242Z,57.40
2022-08-26T03:30:30.264Z,57.64
2022-08-26T03:33:03.861Z,58.14
2022-08-26T03:35:33.266Z,58.75
2022-08-26T03:38:03.489Z,60.96
2022-08-26T03:40:34.137Z,59.67
2022-08-26T03:43:06.335Z,60.81
2022-08-26T03:45:38.250Z,62.82
2022-08-26T03:48:07.313Z,68.90
2022-08-26T03:50:38.133Z,68.04
2022-08-26T03:53:12.662Z,65.96
2022-08-26T03:55:43.201Z,64.30
2022-08-26T03:58:16.527Z,62.72
2022-08-26T04:00:44.693Z,61.93
2022-08-26T04:03:34.503Z,61.11
2022-08-26T04:06:02.368Z,60.67
2022-08-26T04:08:37.261Z,59.50
2022-08-26T04:11:09.363Z,57.22
2022-08-26T04:13:39.590Z,57.69
2022-08-26T04:16:16.189Z,58.56
2022-08-26T04:18:46.660Z,59.31
2022-08-26T04:21:17.297Z,59.60
2022-08-26T04:23:58.313Z,59.84
2022-08-26T04:26:39.498Z,59.90
2022-08-26T04:29:18.247Z,59.69
2022-08-26T04:31:48.587Z,60.44
2022-08-26T04:34:22.829Z,60.32
2022-08-26T04:36:56.228Z,60.57
2022-08-26T04:39:29.140Z,60.67
2022-08-26T04:41:57.842Z,60.45
2022-08-26T04:44:30.441Z,60.68
2022-08-26T04:46:58.858Z,60.35
2022-08-26T04:49:35.160Z,60.21
2022-08-26T04:52:05.308Z,60.41
2022-08-26T04:54:33.170Z,60.05
2022-08-26T04:57:07.000Z,60.07
2022-08-26T04:59:57.159Z,59.71
2022-08-26T05:02:31.989Z,59.19
2022-08-26T05:05:16.076Z,58.36
2022-08-26T05:07:51.063Z,57.38
2022-08-26T05:10:23.540Z,56.84
2022-08-26T05:12:51.506Z,55.43
2022-08-26T05:15:25.661Z,53.49
2022-08-26T05:18:01.489Z,51.99
2022-08-26T05:20:30.768Z,50.52
2022-08-26T05:23:01.192Z,48.33
2022-08-26T05:25:29.676Z,47.63
2022-08-26T05:28:03.849Z,45.91
2022-08-26T05:30:38.247Z,44.36
2022-08-26T05:33:11.794Z,43.40
2022-08-26T05:35:43.699Z,42.04
2022-08-26T05:38:19.661Z,41.05
2022-08-26T05:40:53.207Z,40.27
2022-08-26T05:43:28.870Z,38.90
2022-08-26T05:46:09.007Z,37.94
2022-08-26T05:48:37.447Z,37.00
2022-08-26T05:51:12.885Z,36.36
2022-08-26T05:53:54.947Z,35.53
2022-08-26T05:56:39.155Z,34.60
2022-08-26T05:59:15.990Z,33.12
2022-08-26T06:02:07.550Z,32.00
2022-08-26T06:04:43.139Z,32.25
2022-08-26T06:07:45.714Z,31.68
2022-08-26T06:10:32.566Z,30.56
2022-08-26T06:13:09.352Z,31.87
2022-08-26T06:16:10.124Z,30.47
2022-08-26T06:18:47.797Z,29.68
2022-08-26T06:21:36.189Z,30.75
2022-08-26T06:24:28.885Z,29.67
2022-08-26T06:27:11.468Z,28.76
2022-08-26T06:29:48.114Z,28.84
2022-08-26T06:32:16.727Z,29.36
2022-08-26T06:34:51.600Z,28.04
2022-08-26T06:37:22.620Z,27.55
2022-08-26T06:39:53.717Z,27.65
2022-08-26T06:42:27.312Z,27.04
2022-08-26T06:45:03.871Z,26.81
2022-08-26T06:47:33.770Z,26.90
2022-08-26T06:50:15.701Z,26.05
2022-08-26T06:53:09.196Z,26.25
2022-08-26T06:55:45.823Z,25.51
2022-08-26T06:58:14.425Z,25.20
2022-08-26T07:00:47.376Z,26.80
2022-08-26T07:03:16.608Z,24.51
2022-08-26T07:05:50.900Z,25.11
2022-08-26T07:08:33.172Z,25.34
2022-08-26T07:11:17.354Z,24.91
2022-08-26T07:13:59.363Z,25.66
2022-08-26T07:16:35.707Z,25.37
2022-08-26T07:19:30.892Z,25.72
2022-08-26T07:22:05.006Z,25.63
2022-08-26T07:24:36.282Z,25.00
2022-08-26T07:27:09.902Z,24.83
2022-08-26T07:29:42.494Z,24.49
2022-08-26T07:32:19.548Z,24.05
2022-08-26T07:34:51.024Z,23.70
2022-08-26T07:37:19.205Z,23.49
2022-08-26T07:40:00.256Z,22.65
2022-08-26T07:42:37.428Z,22.82
2022-08-26T07:45:09.890Z,21.86
2022-08-26T07:47:48.010Z,22.21
2022-08-26T07:50:22.724Z,22.25
2022-08-26T07:53:19.351Z,21.49
2022-08-26T07:55:50.921Z,20.74
2022-08-26T07:58:21.246Z,22.15
2022-08-26T08:00:49.216Z,22.30
2022-08-26T08:03:17.977Z,22.54
2022-08-26T08:05:49.222Z,23.15
2022-08-26T08:08:27.845Z,23.72
2022-08-26T08:11:04.860Z,23.33
2022-08-26T08:13:41.867Z,24.05
2022-08-26T08:16:14.201Z,24.07
2022-08-26T08:18:45.338Z,24.48
2022-08-26T08:21:21.676Z,25.48
2022-08-26T08:24:08.205Z,25.79
2022-08-26T08:26:37.628Z,26.40
2022-08-26T08:29:08.962Z,27.35
2022-08-26T08:31:56.724Z,28.37
2022-08-26T08:34:31.372Z,28.86
2022-08-26T08:36:59.277Z,29.41
2022-08-26T08:39:33.184Z,29.59
2022-08-26T08:42:29.517Z,29.37
2022-08-26T08:45:01.835Z,29.96
2022-08-26T08:47:56.175Z,29.95
2022-08-26T08:50:53.121Z,29.96
2022-08-26T08:53:30.566Z,30.07
2022-08-26T08:56:24.902Z,30.32
2022-08-26T08:59:16.978Z,30.68
2022-08-26T09:01:55.074Z,30.85
2022-08-26T09:04:54.888Z,30.76
2022-08-26T09:07:40.322Z,30.80
2022-08-26T09:10:44.034Z,30.61
2022-08-26T09:13:24.954Z,30.83
2022-08-26T09:16:35.272Z,30.36
2022-08-26T09:19:25.468Z,31.03
2022-08-26T09:22:08.815Z,30.08
2022-08-26T09:24:48.441Z,29.46
2022-08-26T09:27:43.234Z,28.73
2022-08-26T09:30:18.194Z,29.50
2022-08-26T09:32:58.667Z,29.78
2022-08-26T09:35:45.159Z,29.54
2022-08-26T09:38:32.344Z,27.94
2022-08-26T09:41:06.378Z,28.00
2022-08-26T09:43:37.083Z,28.46
2022-08-26T09:46:19.015Z,28.96
2022-08-26T09:48:51.700Z,29.11
2022-08-26T09:51:25.226Z,29.04
2022-08-26T09:53:54.923Z,29.11
2022-08-26T09:56:32.818Z,28.68
2022-08-26T09:59:06.439Z,28.87
2022-08-26T10:01:44.055Z,28.73
2022-08-26T10:04:14.992Z,28.93
2022-08-26T10:07:00.720Z,29.34
2022-08-26T10:09:29.875Z,29.00
2022-08-26T10:12:14.790Z,28.55
2022-08-26T10:14:48.448Z,28.58
2022-08-26T10:17:25.423Z,28.44
2022-08-26T10:19:57.851Z,28.23
2022-08-26T10:22:54.276Z,27.02
2022-08-26T10:25:29.457Z,26.96
2022-08-26T10:28:11.173Z,26.55
2022-08-26T10:30:47.384Z,26.50
2022-08-26T10:33:15.609Z,26.47
2022-08-26T10:35:56.034Z,26.44
2022-08-26T10:38:37.605Z,26.84
2022-08-26T10:41:18.251Z,26.97
2022-08-26T10:43:52.458Z,27.13
2022-08-26T10:46:27.181Z,27.07
2022-08-26T10:49:24.741Z,27.46
2022-08-26T10:52:22.064Z,27.12
2022-08-26T10:55:16.558Z,27.33
2022-08-26T10:57:56.994Z,27.53
2022-08-26T11:01:02.824Z,27.61
2022-08-26T11:03:58.870Z,27.59
2022-08-26T11:06:29.105Z,27.63
2022-08-26T11:09:02.576Z,27.95
2022-08-26T11:11:39.875Z,27.47
2022-08-26T11:14:10.158Z,27.28
2022-08-26T11:16:43.372Z,26.63
2022-08-26T11:19:59.400Z,27.41
2022-08-26T11:22:39.773Z,27.78
2022-08-26T11:25:19.725Z,27.25
2022-08-26T11:27:50.931Z,27.70
2022-08-26T11:30:19.991Z,28.34
2022-08-26T11:32:55.056Z,28.67
2022-08-26T11:35:26.073Z,27.65
2022-08-26T11:37:57.413Z,26.95
2022-08-26T11:40:32.350Z,27.39
2022-08-26T11:43:20.598Z,27.62
2022-08-26T11:46:02.468Z,26.64
2022-08-26T11:48:41.956Z,26.20
2022-08-26T11:51:21.414Z,26.60
2022-08-26T11:53:49.901Z,26.29
2022-08-26T11:56:27.398Z,26.30
2022-08-26T11:59:02.532Z,25.96
2022-08-26T12:01:39.042Z,26.31
2022-08-26T12:04:08.992Z,26.46
2022-08-26T12:06:48.948Z,26.24
2022-08-26T12:09:31.270Z,26.13
2022-08-26T12:12:13.851Z,26.02
2022-08-26T12:14:41.846Z,25.75
2022-08-26T12:17:15.350Z,26.21
2022-08-26T12:19:43.775Z,26.61
2022-08-26T12:22:22.790Z,26.30
2022-08-26T12:25:05.926Z,26.07
2022-08-26T12:27:41.640Z,26.49
2022-08-26T12:30:14.060Z,26.42
2022-08-26T12:32:57.570Z,26.28
2022-08-26T12:35:26.961Z,26.26
2022-08-26T12:37:54.779Z,26.36
2022-08-26T12:40:31.026Z,26.23
2022-08-26T12:43:01.979Z,26.56
2022-08-26T12:45:43.816Z,27.13
2022-08-26T12:48:42.920Z,27.26
2022-08-26T12:51:42.239Z,27.20
2022-08-26T12:54:14.364Z,27.42
2022-08-26T12:56:43.146Z,26.88
2022-08-26T12:59:26.717Z,27.22
2022-08-26T13:01:54.746Z,26.97
2022-08-26T13:04:40.707Z,26.46
2022-08-26T13:07:27.041Z,25.81
2022-08-26T13:09:56.955Z,26.60
2022-08-26T13:12:27.886Z,26.96
2022-08-26T13:14:59.741Z,26.47
2022-08-26T13:17:31.614Z,27.01
2022-08-26T13:20:03.478Z,27.36
2022-08-26T13:22:32.500Z,27.62
2022-08-26T13:25:00.363Z,27.71
2022-08-26T13:27:28.637Z,27.35
2022-08-26T13:29:57.970Z,27.00
2022-08-26T13:32:27.291Z,27.22
2022-08-26T13:34:56.470Z,26.82
2022-08-26T13:37:34.597Z,26.72
2022-08-26T13:40:07.779Z,26.38
2022-08-26T13:42:36.370Z,26.83
2022-08-26T13:45:05.167Z,27.48
2022-08-26T13:47:33.024Z,28.14
2022-08-26T13:50:00.891Z,28.55
2022-08-26T13:52:30.541Z,28.91
2022-08-26T13:55:00.709Z,29.29
2022-08-26T13:57:30.229Z,29.46
2022-08-26T13:59:59.501Z,29.56
2022-08-26T14:02:28.002Z,29.36
2022-08-26T14:04:56.150Z,28.91
2022-08-26T14:07:24.470Z,29.15
2022-08-26T14:09:52.520Z,29.69
2022-08-26T14:12:20.593Z,29.70
2022-08-26T14:14:48.669Z,29.46
2022-08-26T14:17:21.118Z,29.25
2022-08-26T14:19:49.720Z,29.12
2022-08-26T14:22:19.043Z,29.62
2022-08-26T14:24:47.605Z,29.92
2022-08-26T14:27:15.407Z,30.29
2022-08-26T14:29:43.438Z,30.50
2022-08-26T14:32:21.444Z,30.23
2022-08-26T14:34:50.566Z,30.27
2022-08-26T14:37:19.116Z,30.10
2022-08-26T14:39:47.192Z,30.66
2022-08-26T14:42:15.990Z,30.67
2022-08-26T14:44:45.765Z,29.93
2022-08-26T14:47:13.759Z,30.35
2022-08-26T14:49:41.726Z,30.57
2022-08-26T14:52:09.693Z,30.83
2022-08-26T14:54:38.066Z,31.32
2022-08-26T14:57:10.479Z,31.72
2022-08-26T14:59:45.486Z,31.71
2022-08-26T15:02:32.947Z,31.93
2022-08-26T15:05:02.929Z,31.75
2022-08-26T15:07:31.056Z,31.93
2022-08-26T15:09:59.468Z,32.24
2022-08-26T15:12:27.911Z,32.26
2022-08-26T15:14:56.133Z,32.69
2022-08-26T15:17:24.217Z,32.68
2022-08-26T15:19:52.565Z,32.24
2022-08-26T15:22:20.532Z,32.52
2022-08-26T15:24:48.500Z,32.61
2022-08-26T15:27:21.794Z,32.56
2022-08-26T15:29:49.968Z,32.28
2022-08-26T15:32:18.139Z,31.97
2022-08-26T15:34:46.210Z,32.16
2022-08-26T15:37:14.080Z,32.50
2022-08-26T15:39:42.146Z,32.82
2022-08-26T15:42:11.298Z,32.79
2022-08-26T15:44:43.917Z,33.16
2022-08-26T15:47:12.852Z,33.30
2022-08-26T15:49:40.825Z,33.09
2022-08-26T15:52:09.394Z,33.42
2022-08-26T15:54:37.360Z,33.29
2022-08-26T15:57:08.187Z,33.57
2022-08-26T15:59:39.204Z,33.64
2022-08-26T16:02:07.417Z,33.84
2022-08-26T16:04:35.448Z,34.27
2022-08-26T16:07:03.859Z,34.24
2022-08-26T16:09:31.722Z,34.48
2022-08-26T16:12:00.255Z,35.19
2022-08-26T16:14:28.068Z,36.57
2022-08-26T16:16:57.543Z,38.03
2022-08-26T16:19:25.513Z,38.80
2022-08-26T16:21:53.476Z,39.20
2022-08-26T16:24:25.973Z,39.60
2022-08-26T16:26:56.479Z,39.88
2022-08-26T16:29:24.958Z,39.32
2022-08-26T16:31:54.872Z,39.57
2022-08-26T16:34:23.045Z,39.75
2022-08-26T16:36:51.013Z,39.93
2022-08-26T16:39:19.187Z,40.08
2022-08-26T16:41:47.157Z,40.35
2022-08-26T16:44:15.165Z,39.83
2022-08-26T16:46:43.115Z,40.89
2022-08-26T16:49:11.096Z,41.17
2022-08-26T16:51:39.067Z,40.98
2022-08-26T16:54:07.816Z,41.96
2022-08-26T16:56:36.543Z,42.28
2022-08-26T16:59:06.249Z,42.81
2022-08-26T17:01:34.375Z,43.14
2022-08-26T17:04:02.657Z,43.39
2022-08-26T17:06:30.624Z,43.13
2022-08-26T17:08:58.595Z,43.28
2022-08-26T17:11:26.561Z,43.34
2022-08-26T17:13:54.734Z,43.54
2022-08-26T17:16:26.664Z,43.47
2022-08-26T17:18:56.748Z,43.51
2022-08-26T17:21:25.604Z,43.58
2022-08-26T17:23:53.990Z,43.72
2022-08-26T17:26:22.155Z,43.45
2022-08-26T17:28:50.640Z,43.35
2022-08-26T17:31:18.646Z,43.72
2022-08-26T17:33:53.409Z,43.79
2022-08-26T17:36:27.461Z,45.44
2022-08-26T17:38:57.356Z,45.70
2022-08-26T17:41:26.142Z,45.70
2022-08-26T17:43:54.213Z,45.50
2022-08-26T17:46:22.341Z,46.06
2022-08-26T17:48:50.456Z,46.65
2022-08-26T17:51:19.517Z,47.81
2022-08-26T17:53:48.132Z,46.96
2022-08-26T17:56:18.868Z,47.56
2022-08-26T17:58:48.180Z,47.43
2022-08-26T18:01:21.455Z,47.82
2022-08-26T18:03:49.813Z,49.07
2022-08-26T18:06:18.930Z,49.27
2022-08-26T18:08:47.310Z,49.42
2022-08-26T18:11:18.280Z,50.75
2022-08-26T18:13:47.564Z,50.24
2022-08-26T18:16:17.310Z,50.86
2022-08-26T18:18:46.643Z,50.52
2022-08-26T18:21:18.349Z,50.53
2022-08-26T18:23:46.790Z,50.81
2022-08-26T18:26:20.745Z,50.97
2022-08-26T18:28:48.769Z,50.86
2022-08-26T18:31:17.280Z,51.17
2022-08-26T18:33:45.932Z,51.16
2022-08-26T18:36:24.383Z,51.26
2022-08-26T18:38:56.002Z,51.59
2022-08-26T18:41:28.796Z,51.95
2022-08-26T18:43:57.934Z,52.29
2022-08-26T18:46:27.335Z,52.72
2022-08-26T18:48:56.203Z,53.69
2022-08-26T18:51:30.179Z,53.29
2022-08-26T18:53:59.226Z,53.28
2022-08-26T18:56:27.648Z,53.54
2022-08-26T18:58:55.619Z,54.01
2022-08-26T19:01:27.369Z,54.26
2022-08-26T19:03:57.939Z,54.40
2022-08-26T19:06:26.894Z,54.45
2022-08-26T19:08:55.706Z,54.58
2022-08-26T19:11:32.628Z,54.88
2022-08-26T19:14:10.359Z,55.27
2022-08-26T19:16:39.075Z,55.86
2022-08-26T19:19:07.934Z,55.73
2022-08-26T19:21:36.766Z,56.16
2022-08-26T19:24:13.392Z,56.43
2022-08-26T19:26:49.655Z,57.18
2022-08-26T19:29:21.642Z,57.07
2022-08-26T19:31:50.710Z,57.27
2022-08-26T19:34:20.231Z,57.28
2022-08-26T19:36:53.308Z,57.60
2022-08-26T19:39:22.808Z,57.64
2022-08-26T19:41:50.878Z,57.90
2022-08-26T19:44:39.469Z,57.88
2022-08-26T19:47:13.581Z,58.13
2022-08-26T19:49:41.822Z,58.46
2022-08-26T19:52:11.434Z,58.54
2022-08-26T19:54:39.910Z,58.87
2022-08-26T19:57:10.636Z,58.93
2022-08-26T19:59:40.450Z,59.01
2022-08-26T20:02:11.010Z,59.42
2022-08-26T20:04:39.973Z,59.67
2022-08-26T20:07:09.305Z,59.78
2022-08-26T20:09:37.191Z,59.80
2022-08-26T20:12:06.560Z,59.80
2022-08-26T20:14:35.327Z,60.01
2022-08-26T20:17:04.757Z,60.10
2022-08-26T20:19:51.436Z,60.20
2022-08-26T20:22:19.917Z,60.34
2022-08-26T20:24:48.589Z,60.42
2022-08-26T20:27:16.672Z,60.62
2022-08-26T20:29:44.948Z,61.61
2022-08-26T20:32:12.930Z,64.57
2022-08-26T20:34:40.979Z,69.47
2022-08-26T20:37:12.533Z,69.40
2022-08-26T20:39:40.530Z,66.78
2022-08-26T20:42:20.025Z,66.21
2022-08-26T20:44:54.426Z,64.78
2022-08-26T20:47:23.458Z,63.45
2022-08-26T20:49:52.546Z,61.61
2022-08-26T20:52:20.718Z,60.20
2022-08-26T20:54:48.790Z,59.61
2022-08-26T20:57:16.764Z,57.13
2022-08-26T20:59:44.757Z,56.69
2022-08-26T21:02:12.698Z,57.44
2022-08-26T21:04:40.663Z,59.35
2022-08-26T21:07:08.527Z,58.02
2022-08-26T21:09:36.395Z,57.21
2022-08-26T21:12:05.693Z,57.51
2022-08-26T21:14:33.662Z,57.53
2022-08-26T21:17:01.734Z,58.04
2022-08-26T21:19:30.249Z,58.33
2022-08-26T21:21:59.729Z,58.63
2022-08-26T21:24:27.786Z,58.96
2022-08-26T21:26:55.755Z,59.58
2022-08-26T21:29:23.724Z,59.84
2022-08-26T21:31:51.755Z,59.97
2022-08-26T21:34:19.967Z,60.82
2022-08-26T21:36:48.077Z,60.76
2022-08-26T21:39:16.864Z,61.16
2022-08-26T21:41:45.202Z,61.56
2022-08-26T21:44:14.777Z,63.87
2022-08-26T21:46:43.495Z,69.36
2022-08-26T21:49:13.296Z,70.31
2022-08-26T21:51:44.694Z,68.17
2022-08-26T21:54:12.930Z,67.51
2022-08-26T21:56:45.211Z,65.03
2022-08-26T21:59:14.577Z,64.02
2022-08-26T22:01:42.677Z,62.25
2022-08-26T22:04:10.848Z,61.42
2022-08-26T22:06:59.700Z,61.10
2022-08-26T22:09:29.205Z,60.21
2022-08-26T22:11:57.378Z,58.18
2022-08-26T22:14:30.748Z,57.02
2022-08-26T22:16:59.518Z,57.54
2022-08-26T22:19:27.671Z,58.15
2022-08-26T22:21:56.630Z,58.43
2022-08-26T22:24:26.092Z,57.73
2022-08-26T22:26:54.710Z,57.84
2022-08-26T22:29:24.505Z,57.81
2022-08-26T22:31:52.826Z,57.87
2022-08-26T22:34:23.128Z,58.63
2022-08-26T22:36:51.229Z,59.97
2022-08-26T22:39:23.051Z,59.81
2022-08-26T22:41:52.323Z,60.26
2022-08-26T22:44:21.250Z,61.13
2022-08-26T22:46:50.335Z,63.15
2022-08-26T22:49:18.243Z,68.12
2022-08-26T22:51:46.593Z,68.32
2022-08-26T22:54:14.893Z,65.69
2022-08-26T22:56:44.421Z,64.54
2022-08-26T22:59:12.633Z,63.18
2022-08-26T23:01:42.961Z,62.52
2022-08-26T23:04:11.636Z,61.91
2022-08-26T23:06:41.559Z,61.00
2022-08-26T23:09:09.711Z,60.65
2022-08-26T23:11:42.311Z,59.23
2022-08-26T23:14:11.193Z,57.13
2022-08-26T23:16:41.723Z,57.48
2022-08-26T23:19:11.537Z,57.74
2022-08-26T23:21:39.912Z,57.50
2022-08-26T23:24:08.089Z,56.96
2022-08-26T23:26:36.669Z,58.43
2022-08-26T23:29:06.045Z,58.50
2022-08-26T23:31:34.404Z,58.83
2022-08-26T23:34:21.259Z,58.91
2022-08-26T23:36:49.327Z,59.20
2022-08-26T23:39:17.192Z,60.07
2022-08-26T23:41:45.265Z,61.89
2022-08-26T23:44:13.169Z,61.27
2022-08-26T23:46:40.993Z,61.14
2022-08-26T23:49:08.963Z,61.66
2022-08-26T23:51:56.997Z,63.40
2022-08-26T23:54:25.076Z,69.82
2022-08-26T23:56:53.041Z,70.04
2022-08-26T23:59:20.906Z,68.61
